createdAt,value
2023-05-01T00:00:40.171Z,8.60
2023-05-01T00:03:08.350Z,8.58
2023-05-01T00:05:36.339Z,8.57
2023-05-01T00:08:04.513Z,8.47
2023-05-01T00:10:35.790Z,8.51
2023-05-01T00:13:04.270Z,8.44
2023-05-01T00:15:33.052Z,8.48
2023-05-01T00:18:01.226Z,8.51
2023-05-01T00:20:29.995Z,8.45
2023-05-01T00:22:58.226Z,8.41
2023-05-01T00:25:26.178Z,8.29
2023-05-01T00:27:54.317Z,8.21
2023-05-01T00:30:22.276Z,8.18
2023-05-01T00:32:50.331Z,8.21
2023-05-01T00:35:18.420Z,8.15
2023-05-01T00:37:47.191Z,8.13
2023-05-01T00:40:15.121Z,8.14
2023-05-01T00:42:43.217Z,8.12
2023-05-01T00:45:11.622Z,7.95
2023-05-01T00:47:39.707Z,7.91
2023-05-01T00:50:08.708Z,7.95
2023-05-01T00:52:36.477Z,8.00
2023-05-01T00:55:05.553Z,7.95
2023-05-01T00:57:33.897Z,7.91
2023-05-01T01:00:01.969Z,7.90
2023-05-01T01:02:30.299Z,7.96
2023-05-01T01:04:58.755Z,8.00
2023-05-01T01:07:51.972Z,8.02
2023-05-01T01:10:44.018Z,8.02
2023-05-01T01:13:38.550Z,7.76
2023-05-01T01:16:16.332Z,7.86
2023-05-01T01:18:52.666Z,7.89
2023-05-01T01:21:27.683Z,7.75
2023-05-01T01:24:22.459Z,7.74
2023-05-01T01:27:18.348Z,7.79
2023-05-01T01:29:59.625Z,7.78
2023-05-01T01:32:36.564Z,7.70
2023-05-01T01:35:09.344Z,7.49
2023-05-01T01:37:48.660Z,7.26
2023-05-01T01:40:24.664Z,7.40
2023-05-01T01:43:04.726Z,7.40
2023-05-01T01:45:42.567Z,7.34
2023-05-01T01:48:15.173Z,7.30
2023-05-01T01:50:44.618Z,7.22
2023-05-01T01:53:18.057Z,7.25
2023-05-01T01:55:49.269Z,7.22
2023-05-01T01:58:21.586Z,7.20
2023-05-01T02:00:50.575Z,7.07
2023-05-01T02:03:19.680Z,6.95
2023-05-01T02:05:49.996Z,6.56
2023-05-01T02:08:20.125Z,6.65
2023-05-01T02:10:49.017Z,6.83
2023-05-01T02:13:17.942Z,6.93
2023-05-01T02:15:48.018Z,6.94
2023-05-01T02:18:17.081Z,7.00
2023-05-01T02:20:45.616Z,6.99
2023-05-01T02:23:14.204Z,6.99
2023-05-01T02:25:44.480Z,7.02
2023-05-01T02:28:22.736Z,6.91
2023-05-01T02:30:50.855Z,6.87
2023-05-01T02:33:19.125Z,6.72
2023-05-01T02:35:48.106Z,6.95
2023-05-01T02:38:18.569Z,7.07
2023-05-01T02:40:54.172Z,7.05
2023-05-01T02:43:23.171Z,6.99
2023-05-01T02:45:53.000Z,6.95
2023-05-01T02:48:27.059Z,7.11
2023-05-01T02:50:57.390Z,7.23
2023-05-01T02:55:05.777Z,7.15
2023-05-01T02:57:34.718Z,7.07
2023-05-01T03:00:02.561Z,7.10
2023-05-01T03:02:30.553Z,7.07
2023-05-01T03:04:58.703Z,7.05
2023-05-01T03:07:27.236Z,7.00
2023-05-01T03:09:55.500Z,6.95
2023-05-01T03:12:23.879Z,6.81
2023-05-01T03:14:53.031Z,6.80
2023-05-01T03:17:20.950Z,6.91
2023-05-01T03:19:49.890Z,7.04
2023-05-01T03:22:17.829Z,7.07
2023-05-01T03:24:47.619Z,7.12
2023-05-01T03:27:15.814Z,7.06
2023-05-01T03:29:46.403Z,6.99
2023-05-01T03:32:15.295Z,7.06
2023-05-01T03:34:43.639Z,6.95
2023-05-01T03:37:12.149Z,6.91
2023-05-01T03:39:40.040Z,7.06
2023-05-01T03:42:20.336Z,7.11
2023-05-01T03:44:48.414Z,7.11
2023-05-01T03:47:17.771Z,7.10
2023-05-01T03:49:45.913Z,7.10
2023-05-01T03:52:14.761Z,7.06
2023-05-01T03:54:44.843Z,7.08
2023-05-01T03:57:38.873Z,7.04
2023-05-01T04:00:08.710Z,7.09
2023-05-01T04:02:47.770Z,7.11
2023-05-01T04:05:21.757Z,7.12
2023-05-01T04:07:54.638Z,7.20
2023-05-01T04:10:23.227Z,7.07
2023-05-01T04:12:57.016Z,7.17
2023-05-01T04:15:25.160Z,7.35
2023-05-01T04:17:56.013Z,7.46
2023-05-01T04:20:24.924Z,7.40
2023-05-01T04:22:52.998Z,7.45
2023-05-01T04:25:21.052Z,7.57
2023-05-01T04:27:51.878Z,7.69
2023-05-01T04:30:19.899Z,7.75
2023-05-01T04:32:48.000Z,7.83
2023-05-01T04:35:16.881Z,7.85
2023-05-01T04:37:46.082Z,8.04
2023-05-01T04:40:14.190Z,8.10
2023-05-01T04:42:42.779Z,8.12
2023-05-01T04:45:14.065Z,8.04
2023-05-01T04:47:42.209Z,8.31
2023-05-01T04:50:11.012Z,8.41
2023-05-01T04:52:39.128Z,8.47
2023-05-01T04:55:07.988Z,8.63
2023-05-01T04:57:39.210Z,8.72
2023-05-01T05:00:09.450Z,8.77
2023-05-01T05:02:46.933Z,8.92
2023-05-01T05:05:16.457Z,8.93
2023-05-01T05:07:44.373Z,8.55
2023-05-01T05:10:36.062Z,8.55
2023-05-01T05:13:28.590Z,8.65
2023-05-01T05:16:07.907Z,8.46
2023-05-01T05:18:36.124Z,8.37
2023-05-01T05:21:05.510Z,8.47
2023-05-01T05:23:33.774Z,8.61
2023-05-01T05:26:02.303Z,8.80
2023-05-01T05:28:31.284Z,8.74
2023-05-01T05:30:59.390Z,8.54
2023-05-01T05:33:29.455Z,8.50
2023-05-01T05:35:59.746Z,8.51
2023-05-01T05:38:33.144Z,8.52
2023-05-01T05:41:02.149Z,8.93
2023-05-01T05:43:32.625Z,8.75
2023-05-01T05:46:01.386Z,8.94
2023-05-01T05:48:31.664Z,9.12
2023-05-01T05:50:59.917Z,9.54
2023-05-01T05:53:27.913Z,9.69
2023-05-01T05:55:56.037Z,10.09
2023-05-01T05:58:24.907Z,10.42
2023-05-01T06:00:58.935Z,10.59
2023-05-01T06:03:27.785Z,11.39
2023-05-01T06:05:59.975Z,12.09
2023-05-01T06:08:28.093Z,13.14
2023-05-01T06:10:56.889Z,14.89
2023-05-01T06:13:25.516Z,15.98
2023-05-01T06:15:54.177Z,17.92
2023-05-01T06:18:22.388Z,19.40
2023-05-01T06:20:52.261Z,20.03
2023-05-01T06:23:20.174Z,20.99
2023-05-01T06:26:01.089Z,22.35
2023-05-01T06:28:29.012Z,23.60
2023-05-01T06:30:57.326Z,24.24
2023-05-01T06:33:27.523Z,25.17
2023-05-01T06:36:08.240Z,25.82
2023-05-01T06:38:36.935Z,26.32
2023-05-01T06:41:05.673Z,27.07
2023-05-01T06:43:33.826Z,27.60
2023-05-01T06:46:01.825Z,27.58
2023-05-01T06:48:29.667Z,27.92
2023-05-01T06:50:57.850Z,28.36
2023-05-01T06:53:25.833Z,29.10
2023-05-01T06:55:54.162Z,29.75
2023-05-01T06:58:24.390Z,29.99
2023-05-01T07:00:55.349Z,30.90
2023-05-01T07:03:23.839Z,31.40
2023-05-01T07:05:51.778Z,31.73
2023-05-01T07:08:20.220Z,32.41
2023-05-01T07:10:50.033Z,32.66
2023-05-01T07:13:18.432Z,33.00
2023-05-01T07:15:46.393Z,33.33
2023-05-01T07:18:14.313Z,33.31
2023-05-01T07:20:42.590Z,33.51
2023-05-01T07:23:10.842Z,33.61
2023-05-01T07:25:38.663Z,33.72
2023-05-01T07:28:08.344Z,33.37
2023-05-01T07:30:37.896Z,33.46
2023-05-01T07:33:06.232Z,33.77
2023-05-01T07:35:35.072Z,32.96
2023-05-01T07:38:03.464Z,32.60
2023-05-01T07:40:35.286Z,31.68
2023-05-01T07:43:04.600Z,31.64
2023-05-01T07:45:32.819Z,30.04
2023-05-01T07:48:00.997Z,28.26
2023-05-01T07:50:29.166Z,29.06
2023-05-01T07:52:57.643Z,28.58
2023-05-01T07:55:26.332Z,27.77
2023-05-01T07:57:54.744Z,26.51
2023-05-01T08:00:23.387Z,25.49
2023-05-01T08:02:52.020Z,24.50
2023-05-01T08:05:20.133Z,23.60
2023-05-01T08:07:48.435Z,22.90
2023-05-01T08:10:16.586Z,22.27
2023-05-01T08:12:44.599Z,21.61
2023-05-01T08:15:12.512Z,21.16
2023-05-01T08:17:40.847Z,20.86
2023-05-01T08:20:10.222Z,20.59
2023-05-01T08:22:38.666Z,20.44
2023-05-01T08:25:08.004Z,20.26
2023-05-01T08:27:36.323Z,20.09
2023-05-01T08:30:05.143Z,20.09
2023-05-01T08:32:33.893Z,20.04
2023-05-01T08:35:02.156Z,19.73
2023-05-01T08:37:31.145Z,19.79
2023-05-01T08:39:59.678Z,20.15
2023-05-01T08:42:31.633Z,20.77
2023-05-01T08:45:01.990Z,22.70
2023-05-01T08:47:31.608Z,24.83
2023-05-01T08:50:00.685Z,26.81
2023-05-01T08:52:31.070Z,27.59
2023-05-01T08:55:01.929Z,26.34
2023-05-01T08:57:32.487Z,24.38
2023-05-01T09:00:02.182Z,23.27
2023-05-01T09:02:35.459Z,23.50
2023-05-01T09:05:06.643Z,24.55
2023-05-01T09:07:35.834Z,25.02
2023-05-01T09:10:05.175Z,26.58
2023-05-01T09:12:37.993Z,26.61
2023-05-01T09:15:08.309Z,26.76
2023-05-01T09:17:37.295Z,27.52
2023-05-01T09:20:06.825Z,28.21
2023-05-01T09:22:35.880Z,28.53
2023-05-01T09:25:04.741Z,26.54
2023-05-01T09:27:35.699Z,26.10
2023-05-01T09:30:06.431Z,25.40
2023-05-01T09:32:34.950Z,23.80
2023-05-01T09:35:14.928Z,22.89
2023-05-01T09:37:43.212Z,23.40
2023-05-01T09:40:13.293Z,23.17
2023-05-01T09:42:52.495Z,21.69
2023-05-01T09:45:20.967Z,22.13
2023-05-01T09:47:49.461Z,23.47
2023-05-01T09:50:34.794Z,23.93
2023-05-01T09:53:05.317Z,23.83
2023-05-01T09:55:34.541Z,24.57
2023-05-01T09:58:02.897Z,23.52
2023-05-01T10:00:31.332Z,22.98
2023-05-01T10:03:15.219Z,23.26
2023-05-01T10:05:44.995Z,24.56
2023-05-01T10:08:15.437Z,24.71
2023-05-01T10:10:44.290Z,25.12
2023-05-01T10:13:19.394Z,25.53
2023-05-01T10:15:47.633Z,25.33
2023-05-01T10:18:17.353Z,25.67
2023-05-01T10:20:45.889Z,25.49
2023-05-01T10:23:14.802Z,24.78
2023-05-01T10:25:43.504Z,24.08
2023-05-01T10:28:13.346Z,23.69
2023-05-01T10:30:42.864Z,23.31
2023-05-01T10:33:14.525Z,22.49
2023-05-01T10:35:49.257Z,22.33
2023-05-01T10:38:30.094Z,22.41
2023-05-01T10:40:58.779Z,22.36
2023-05-01T10:43:33.684Z,22.49
2023-05-01T10:46:08.233Z,23.00
2023-05-01T10:48:45.442Z,23.64
2023-05-01T10:51:16.157Z,24.11
2023-05-01T10:53:46.792Z,24.01
2023-05-01T10:56:38.637Z,23.53
2023-05-01T10:59:07.792Z,23.41
2023-05-01T11:01:45.513Z,23.10
2023-05-01T11:04:22.823Z,22.41
2023-05-01T11:07:04.814Z,22.03
2023-05-01T11:09:39.705Z,21.04
2023-05-01T11:12:09.755Z,20.99
2023-05-01T11:15:04.222Z,21.26
2023-05-01T11:17:44.102Z,20.95
2023-05-01T11:20:38.437Z,20.72
2023-05-01T11:23:07.362Z,20.84
2023-05-01T11:25:35.845Z,20.65
2023-05-01T11:28:07.128Z,20.54
2023-05-01T11:30:40.013Z,20.08
2023-05-01T11:33:10.729Z,19.66
2023-05-01T11:35:39.850Z,19.10
2023-05-01T11:38:16.812Z,18.82
2023-05-01T11:40:45.680Z,18.97
2023-05-01T11:43:14.240Z,19.07
2023-05-01T11:45:42.769Z,18.93
2023-05-01T11:48:17.040Z,18.97
2023-05-01T11:50:46.102Z,18.77
2023-05-01T11:53:19.095Z,18.95
2023-05-01T11:55:47.397Z,19.24
2023-05-01T11:58:15.810Z,19.36
2023-05-01T12:00:46.911Z,19.36
2023-05-01T12:03:16.028Z,19.29
2023-05-01T12:05:45.613Z,18.93
2023-05-01T12:08:19.415Z,18.56
2023-05-01T12:10:56.504Z,18.52
2023-05-01T12:13:26.351Z,18.55
2023-05-01T12:15:56.602Z,18.82
2023-05-01T12:18:25.314Z,19.02
2023-05-01T12:20:55.948Z,19.10
2023-05-01T12:23:33.892Z,19.26
2023-05-01T12:26:05.517Z,19.37
2023-05-01T12:28:34.115Z,19.03
2023-05-01T12:31:05.438Z,19.29
2023-05-01T12:33:34.215Z,19.24
2023-05-01T12:36:12.191Z,19.40
2023-05-01T12:38:41.048Z,19.70
2023-05-01T12:41:12.098Z,19.77
2023-05-01T12:43:41.896Z,19.74
2023-05-01T12:46:15.160Z,20.36
2023-05-01T12:48:43.893Z,20.31
2023-05-01T12:51:20.233Z,20.49
2023-05-01T12:53:49.635Z,20.55
2023-05-01T12:56:25.923Z,20.83
2023-05-01T12:58:55.666Z,20.92
2023-05-01T13:01:28.682Z,21.07
2023-05-01T13:03:58.347Z,21.39
2023-05-01T13:06:35.998Z,21.05
2023-05-01T13:09:10.950Z,20.42
2023-05-01T13:11:39.686Z,20.68
2023-05-01T13:14:09.223Z,21.09
2023-05-01T13:16:47.033Z,20.80
2023-05-01T13:19:27.070Z,20.39
2023-05-01T13:21:58.525Z,19.84
2023-05-01T13:24:37.216Z,20.58
2023-05-01T13:27:06.708Z,20.57
2023-05-01T13:29:35.813Z,20.65
2023-05-01T13:32:06.225Z,20.59
2023-05-01T13:34:35.879Z,20.30
2023-05-01T13:37:04.361Z,20.20
2023-05-01T13:39:32.801Z,20.50
2023-05-01T13:42:04.824Z,20.84
2023-05-01T13:44:33.319Z,20.97
2023-05-01T13:47:03.894Z,21.35
2023-05-01T13:49:32.416Z,21.29
2023-05-01T13:52:00.783Z,20.49
2023-05-01T13:54:29.296Z,20.86
2023-05-01T13:56:58.300Z,21.14
2023-05-01T13:59:32.881Z,21.30
2023-05-01T14:02:01.520Z,21.33
2023-05-01T14:04:29.961Z,21.03
2023-05-01T14:09:28.716Z,20.52
2023-05-01T14:11:57.248Z,20.52
2023-05-01T14:14:25.581Z,20.63
2023-05-01T14:16:54.557Z,20.58
2023-05-01T14:19:23.039Z,20.58
2023-05-01T14:21:51.452Z,20.01
2023-05-01T14:24:20.058Z,19.39
2023-05-01T14:26:49.827Z,19.10
2023-05-01T14:29:26.101Z,18.98
2023-05-01T14:31:56.295Z,18.98
2023-05-01T14:34:26.867Z,18.89
2023-05-01T14:36:58.996Z,19.03
2023-05-01T14:39:28.067Z,19.18
2023-05-01T14:41:58.661Z,19.11
2023-05-01T14:44:29.988Z,19.38
2023-05-01T14:46:59.148Z,18.97
2023-05-01T14:49:27.762Z,19.13
2023-05-01T14:51:56.466Z,18.72
2023-05-01T14:54:25.097Z,18.31
2023-05-01T14:56:53.381Z,18.07
2023-05-01T14:59:23.202Z,18.25
2023-05-01T15:01:51.690Z,18.36
2023-05-01T15:04:20.183Z,18.43
2023-05-01T15:06:48.759Z,18.34
2023-05-01T15:09:17.239Z,18.30
2023-05-01T15:11:45.658Z,18.35
2023-05-01T15:14:14.013Z,18.28
2023-05-01T15:16:43.043Z,18.26
2023-05-01T15:19:11.603Z,18.29
2023-05-01T15:21:39.982Z,18.33
2023-05-01T15:24:08.185Z,18.30
2023-05-01T15:26:36.677Z,18.42
2023-05-01T15:29:05.108Z,18.45
2023-05-01T15:31:33.466Z,18.56
2023-05-01T15:34:02.140Z,18.65
2023-05-01T15:36:31.006Z,18.73
2023-05-01T15:38:59.313Z,18.55
2023-05-01T15:41:27.585Z,18.62
2023-05-01T15:43:56.534Z,18.41
2023-05-01T15:46:27.110Z,17.93
2023-05-01T15:48:55.895Z,17.79
2023-05-01T15:51:24.067Z,17.70
2023-05-01T15:53:52.583Z,17.57
2023-05-01T15:56:21.991Z,17.35
2023-05-01T15:58:50.305Z,17.14
2023-05-01T16:01:18.695Z,16.81
2023-05-01T16:03:48.454Z,17.11
2023-05-01T16:06:17.387Z,16.97
2023-05-01T16:08:46.211Z,17.01
2023-05-01T16:11:14.604Z,16.97
2023-05-01T16:13:43.711Z,16.85
2023-05-01T16:16:14.971Z,16.81
2023-05-01T16:18:43.449Z,16.66
2023-05-01T16:21:13.235Z,16.62
2023-05-01T16:23:42.162Z,16.58
2023-05-01T16:26:11.090Z,16.53
2023-05-01T16:28:39.804Z,16.54
2023-05-01T16:31:23.463Z,16.63
2023-05-01T16:33:55.058Z,16.67
2023-05-01T16:36:23.426Z,16.63
2023-05-01T16:38:53.090Z,16.67
2023-05-01T16:41:21.740Z,16.56
2023-05-01T16:43:52.392Z,16.52
2023-05-01T16:46:21.086Z,16.54
2023-05-01T16:48:49.208Z,16.45
2023-05-01T16:51:17.803Z,16.35
2023-05-01T16:53:46.234Z,16.36
2023-05-01T16:56:14.849Z,16.36
2023-05-01T16:58:44.316Z,16.15
2023-05-01T17:01:13.792Z,16.05
2023-05-01T17:03:42.254Z,16.02
2023-05-01T17:06:11.036Z,16.10
2023-05-01T17:08:39.654Z,15.96
2023-05-01T17:11:08.151Z,15.90
2023-05-01T17:13:36.930Z,15.97
2023-05-01T17:16:05.493Z,15.80
2023-05-01T17:18:34.020Z,15.75
2023-05-01T17:21:02.456Z,15.60
2023-05-01T17:23:30.760Z,15.51
2023-05-01T17:25:59.075Z,15.44
2023-05-01T17:28:27.558Z,15.40
2023-05-01T17:30:56.694Z,15.28
2023-05-01T17:33:25.221Z,15.21
2023-05-01T17:35:55.776Z,15.26
2023-05-01T17:38:24.255Z,15.18
2023-05-01T17:40:52.330Z,15.13
2023-05-01T17:43:21.596Z,15.02
2023-05-01T17:45:50.539Z,14.84
2023-05-01T17:48:19.907Z,14.84
2023-05-01T17:50:49.153Z,14.97
2023-05-01T17:53:17.069Z,15.08
2023-05-01T17:55:45.478Z,15.15
2023-05-01T17:58:14.128Z,14.93
2023-05-01T18:00:42.909Z,14.91
2023-05-01T18:03:11.179Z,14.98
2023-05-01T18:05:40.131Z,14.94
2023-05-01T18:08:08.532Z,14.92
2023-05-01T18:10:37.189Z,14.87
2023-05-01T18:13:05.605Z,14.83
2023-05-01T18:15:33.983Z,14.82
2023-05-01T18:18:02.813Z,14.76
2023-05-01T18:20:31.547Z,14.63
2023-05-01T18:22:59.945Z,14.50
2023-05-01T18:25:28.629Z,14.56
2023-05-01T18:27:57.850Z,14.46
2023-05-01T18:30:26.250Z,14.39
2023-05-01T18:32:54.703Z,14.34
2023-05-01T18:35:23.670Z,14.23
2023-05-01T18:37:52.439Z,14.23
2023-05-01T18:40:20.867Z,14.11
2023-05-01T18:42:49.522Z,14.08
2023-05-01T18:45:18.011Z,13.92
2023-05-01T18:47:46.911Z,13.93
2023-05-01T18:50:17.316Z,13.84
2023-05-01T18:52:45.861Z,13.77
2023-05-01T18:55:14.554Z,13.64
2023-05-01T18:57:44.127Z,13.67
2023-05-01T19:00:14.797Z,13.61
2023-05-01T19:02:43.821Z,13.40
2023-05-01T19:05:14.351Z,13.40
2023-05-01T19:07:42.891Z,13.44
2023-05-01T19:10:11.460Z,13.36
2023-05-01T19:12:41.350Z,13.28
2023-05-01T19:15:10.590Z,13.22
2023-05-01T19:17:39.861Z,13.15
2023-05-01T19:20:09.062Z,13.03
2023-05-01T19:22:37.526Z,13.00
2023-05-01T19:25:06.367Z,12.94
2023-05-01T19:27:34.738Z,12.87
2023-05-01T19:30:03.326Z,12.82
2023-05-01T19:32:31.967Z,12.73
2023-05-01T19:35:00.253Z,12.65
2023-05-01T19:37:28.702Z,12.55
2023-05-01T19:39:57.410Z,12.52
2023-05-01T19:42:26.019Z,12.42
2023-05-01T19:44:54.398Z,12.37
2023-05-01T19:47:22.998Z,12.17
2023-05-01T19:49:51.962Z,12.20
2023-05-01T19:52:20.189Z,12.16
2023-05-01T19:54:48.733Z,12.08
2023-05-01T19:57:17.830Z,12.07
2023-05-01T19:59:45.931Z,11.99
2023-05-01T20:02:14.209Z,11.93
2023-05-01T20:04:42.909Z,11.89
2023-05-01T20:07:11.548Z,11.85
2023-05-01T20:09:39.907Z,11.83
2023-05-01T20:12:08.391Z,11.78
2023-05-01T20:14:36.759Z,11.73
2023-05-01T20:17:06.558Z,11.61
2023-05-01T20:19:36.434Z,11.57
2023-05-01T20:22:06.401Z,11.54
2023-05-01T20:24:34.783Z,11.57
2023-05-01T20:27:06.036Z,11.48
2023-05-01T20:29:34.469Z,11.47
2023-05-01T20:32:02.963Z,11.31
2023-05-01T20:34:31.992Z,11.31
2023-05-01T20:37:00.283Z,11.33
2023-05-01T20:39:28.424Z,11.36
2023-05-01T20:41:56.357Z,11.32
2023-05-01T20:44:24.698Z,11.27
2023-05-01T20:46:53.402Z,11.15
2023-05-01T20:49:22.517Z,10.99
2023-05-01T20:51:50.375Z,11.02
2023-05-01T20:54:18.214Z,11.00
2023-05-01T20:56:46.122Z,10.94
2023-05-01T20:59:14.142Z,10.83
2023-05-01T21:01:42.271Z,10.74
2023-05-01T21:04:10.725Z,10.68
2023-05-01T21:06:39.032Z,10.53
2023-05-01T21:09:08.690Z,10.41
2023-05-01T21:11:40.698Z,10.47
2023-05-01T21:14:09.154Z,10.44
2023-05-01T21:16:38.560Z,10.42
2023-05-01T21:19:07.201Z,10.28
2023-05-01T21:21:37.103Z,10.17
2023-05-01T21:24:07.572Z,10.30
2023-05-01T21:26:35.642Z,10.39
2023-05-01T21:29:03.541Z,10.32
2023-05-01T21:31:36.974Z,10.23
2023-05-01T21:34:05.270Z,10.29
2023-05-01T21:36:33.374Z,10.28
2023-05-01T21:39:01.612Z,10.25
2023-05-01T21:41:29.462Z,10.14
2023-05-01T21:43:57.514Z,10.17
2023-05-01T21:46:25.526Z,10.22
2023-05-01T21:48:53.556Z,10.20
2023-05-01T21:51:28.837Z,10.16
2023-05-01T21:53:56.936Z,10.14
2023-05-01T21:56:26.645Z,10.07
2023-05-01T21:59:02.697Z,10.02
2023-05-01T22:01:31.969Z,9.88
2023-05-01T22:04:01.659Z,9.81
2023-05-01T22:06:29.960Z,9.78
2023-05-01T22:08:58.119Z,9.85
2023-05-01T22:11:27.687Z,9.52
2023-05-01T22:13:55.564Z,9.67
2023-05-01T22:16:25.834Z,9.71
2023-05-01T22:18:54.103Z,9.67
2023-05-01T22:21:22.016Z,9.68
2023-05-01T22:23:50.223Z,9.66
2023-05-01T22:26:18.110Z,9.69
2023-05-01T22:28:46.084Z,9.68
2023-05-01T22:31:16.680Z,9.65
2023-05-01T22:33:48.139Z,9.51
2023-05-01T22:36:15.841Z,9.49
2023-05-01T22:38:43.566Z,9.43
2023-05-01T22:41:11.922Z,9.43
2023-05-01T22:43:39.880Z,9.37
2023-05-01T22:46:07.670Z,9.32
2023-05-01T22:48:35.633Z,9.30
2023-05-01T22:51:06.898Z,9.28
2023-05-01T22:53:34.778Z,9.25
2023-05-01T22:56:02.833Z,9.29
2023-05-01T22:58:30.776Z,9.23
2023-05-01T23:00:58.553Z,9.25
2023-05-01T23:03:26.679Z,9.18
2023-05-01T23:05:54.742Z,9.16
2023-05-01T23:08:22.759Z,9.20
2023-05-01T23:10:50.538Z,9.19
2023-05-01T23:13:22.842Z,9.07
2023-05-01T23:15:52.526Z,8.97
2023-05-01T23:18:25.857Z,9.02
2023-05-01T23:20:53.946Z,9.04
2023-05-01T23:23:22.635Z,8.89
2023-05-01T23:25:50.867Z,8.95
2023-05-01T23:28:24.122Z,8.98
2023-05-01T23:31:03.472Z,8.88
2023-05-01T23:33:38.000Z,8.87
2023-05-01T23:36:13.213Z,8.78
2023-05-01T23:38:41.330Z,8.75
2023-05-01T23:41:09.821Z,8.67
2023-05-01T23:43:39.058Z,8.66
2023-05-01T23:46:07.821Z,8.61
2023-05-01T23:48:36.539Z,8.54
2023-05-01T23:51:04.799Z,8.54
2023-05-01T23:53:32.797Z,8.48
2023-05-01T23:56:00.748Z,8.43
2023-05-01T23:58:28.638Z,8.53
